.
WxDataArchive / Data Records for 2013-12-06
2013-12-05 December 2013 2013-12-07

Data Records for Friday, 06 December 2013

Time	Temp	Chill	HIndex	Humid	Dewpt	 Wind 	HiWind	WindDir	Rain 	Barom 
-----	----	-----	------	-----	-----	------	------	-------	-----	----- 
00:00	28.5	28.5	28.5	69	19.6	1	3	270	0.00	30.191 
00:05	28.5	28.5	28.5	69	19.6	0	2	270	0.00	30.191 
00:10	28.4	28.4	28.4	69	19.5	1	2	270	0.00	30.191 
00:15	28.4	28.4	28.4	69	19.5	1	3	270	0.00	30.181 
00:20	28.4	28.4	28.4	69	19.5	1	3	292	0.00	30.181 
00:25	28.4	28.4	28.4	69	19.5	1	4	315	0.00	30.181 
00:30	28.2	28.2	28.2	69	19.4	1	4	292	0.00	30.188 
00:35	28.2	28.2	28.2	69	19.4	1	3	270	0.00	30.188 
00:40	28.2	28.2	28.2	69	19.4	0	2	270	0.00	30.188 
00:45	28.2	28.2	28.2	69	19.4	1	3	270	0.00	30.201 
00:50	28.2	28.2	28.2	70	19.7	1	2	315	0.00	30.201 
00:55	28.2	28.2	28.2	70	19.7	1	3	270	0.00	30.201 
01:00	28.2	28.2	28.2	70	19.7	0	2	292	0.00	30.187 
01:05	28.2	28.2	28.2	70	19.7	0	2	292	0.00	30.187 
01:10	28.2	28.2	28.2	70	19.7	0	3	292	0.00	30.187 
01:15	28.1	28.1	28.1	70	19.6	0	2	292	0.00	30.182 
01:20	28.1	28.1	28.1	70	19.6	0	3	292	0.00	30.182 
01:25	28.1	28.1	28.1	70	19.6	0	2	292	0.00	30.182 
01:30	28.1	28.1	28.1	70	19.6	1	4	292	0.00	30.165 
01:35	28.1	28.1	28.1	70	19.6	0	2	338	0.00	30.165 
01:40	28.1	28.1	28.1	70	19.6	0	2	338	0.00	30.165 
01:45	28.1	28.1	28.1	70	19.6	0	2	338	0.00	30.149 
01:50	28.1	28.1	28.1	70	19.6	0	2	338	0.00	30.149 
01:55	28.1	28.1	28.1	70	19.6	0	1	338	0.00	30.149 
02:00	28.1	28.1	28.1	70	19.6	1	4	338	0.00	30.165 
02:05	28.1	28.1	28.1	70	19.6	1	3	270	0.00	30.165 
02:10	28.1	28.1	28.1	70	19.6	0	3	270	0.00	30.165 
02:15	28.2	28.2	28.2	70	19.7	1	2	270	0.00	30.183 
02:20	28.2	28.2	28.2	70	19.7	0	2	270	0.00	30.183 
02:25	28.1	28.1	28.1	70	19.6	1	3	270	0.00	30.183 
02:30	28.1	28.1	28.1	70	19.6	0	2	270	0.00	30.188 
02:35	28.1	28.1	28.1	70	19.6	1	3	270	0.00	30.188 
02:40	28.1	28.1	28.1	70	19.6	0	3	270	0.00	30.188 
02:45	28.2	28.2	28.2	70	19.7	0	2	270	0.00	30.199 
02:50	28.1	28.1	28.1	70	19.6	0	3	270	0.00	30.199 
02:55	28.1	28.1	28.1	70	19.6	0	3	0	0.00	30.199 
03:00	28.1	28.1	28.1	70	19.6	0	2	0	0.00	30.181 
03:05	28.1	28.1	28.1	70	19.6	0	1	0	0.00	30.181 
03:10	28.1	28.1	28.1	70	19.6	0	2	0	0.00	30.181 
03:15	28.1	28.1	28.1	70	19.6	0	1	0	0.00	30.188 
03:20	28.1	28.1	28.1	71	19.9	0	1	0	0.00	30.188 
03:25	28.1	28.1	28.1	71	19.9	0	2	0	0.00	30.188 
03:30	28.1	28.1	28.1	71	19.9	0	2	0	0.00	30.192 
03:35	28.1	28.1	28.1	71	19.9	0	2	0	0.00	30.192 
03:40	28.1	28.1	28.1	71	19.9	0	2	0	0.00	30.192 
03:45	28.1	28.1	28.1	71	19.9	0	2	0	0.00	30.199 
03:50	28.1	28.1	28.1	71	19.9	0	1	0	0.00	30.199 
03:55	28.1	28.1	28.1	72	20.3	0	3	0	0.00	30.199 
04:00	28.2	28.2	28.2	71	20.0	0	1	0	0.00	30.211 
04:05	28.2	28.2	28.2	71	20.0	0	1	0	0.00	30.211 
04:10	28.2	28.2	28.2	71	20.0	0	1	0	0.00	30.211 
04:15	28.2	28.2	28.2	71	20.0	0	2	0	0.00	30.217 
04:20	28.4	28.4	28.4	71	20.2	1	3	292	0.00	30.217 
04:25	28.4	28.4	28.4	72	20.5	0	1	292	0.00	30.217 
04:30	28.4	28.4	28.4	72	20.5	0	2	292	0.00	30.214 
04:35	28.4	28.4	28.4	71	20.2	1	2	292	0.00	30.214 
04:40	28.4	28.4	28.4	71	20.2	0	2	292	0.00	30.214 
04:45	28.4	28.4	28.4	71	20.2	0	2	292	0.00	30.216 
04:50	28.4	28.4	28.4	72	20.5	0	2	292	0.00	30.216 
04:55	28.4	28.4	28.4	71	20.2	0	3	292	0.00	30.216 
05:00	28.4	28.4	28.4	71	20.2	0	0	---	0.00	30.218 
05:05	28.4	28.4	28.4	72	20.5	0	1	292	0.00	30.218 
05:10	28.5	28.5	28.5	71	20.3	0	1	292	0.00	30.218 
05:15	28.5	28.5	28.5	71	20.3	0	3	292	0.00	30.224 
05:20	28.5	28.5	28.5	71	20.3	0	1	292	0.00	30.224 
05:25	28.5	28.5	28.5	71	20.3	0	3	292	0.00	30.224 
05:30	28.5	28.5	28.5	71	20.3	0	1	292	0.00	30.219 
05:35	28.5	28.5	28.5	71	20.3	0	1	292	0.00	30.219 
05:40	28.5	28.5	28.5	71	20.3	0	2	292	0.00	30.219 
05:45	28.5	28.5	28.5	71	20.3	0	1	292	0.00	30.216 
05:50	28.5	28.5	28.5	71	20.3	0	1	292	0.00	30.216 
05:55	28.5	28.5	28.5	71	20.3	0	2	292	0.00	30.216 
06:00	28.5	28.5	28.5	71	20.3	0	1	292	0.00	30.206 
06:05	28.5	28.5	28.5	71	20.3	0	2	292	0.00	30.206 
06:10	28.5	28.5	28.5	71	20.3	0	1	292	0.00	30.206 
06:15	28.5	28.5	28.5	71	20.3	0	2	292	0.00	30.215 
06:20	28.5	28.5	28.5	71	20.3	0	2	292	0.00	30.215 
06:25	28.4	28.4	28.4	70	19.9	0	2	292	0.00	30.215 
06:30	28.4	28.4	28.4	70	19.9	0	3	292	0.00	30.216 
06:35	28.4	28.4	28.4	70	19.9	1	3	292	0.00	30.216 
06:40	28.4	28.4	28.4	70	19.9	1	3	292	0.00	30.216 
06:45	28.4	28.4	28.4	70	19.9	0	4	315	0.00	30.233 
06:50	28.4	28.4	28.4	70	19.9	1	2	315	0.00	30.233 
06:55	28.4	28.4	28.4	70	19.9	0	2	315	0.00	30.233 
07:00	28.5	28.5	28.5	71	20.3	0	2	315	0.00	30.233 
07:05	28.5	28.5	28.5	70	20.0	1	3	292	0.00	30.233 
07:10	28.5	28.5	28.5	71	20.3	0	3	292	0.00	30.233 
07:15	28.5	28.5	28.5	71	20.3	0	3	292	0.00	30.250 
07:20	28.5	28.5	28.5	71	20.3	0	2	315	0.00	30.250 
07:25	28.5	28.5	28.5	71	20.3	0	1	315	0.00	30.250 
07:30	28.5	28.5	28.5	71	20.3	1	3	315	0.00	30.250 
07:35	28.5	28.5	28.5	71	20.3	1	4	338	0.00	30.250 
07:40	28.4	28.4	28.4	71	20.2	0	1	338	0.00	30.250 
07:45	28.5	28.5	28.5	71	20.3	1	4	338	0.00	30.254 
07:50	28.4	28.4	28.4	71	20.2	1	3	315	0.00	30.254 
07:55	28.4	28.4	28.4	71	20.2	1	3	338	0.00	30.254 
08:00	28.4	28.4	28.4	71	20.2	1	4	292	0.00	30.250 
08:05	28.2	28.2	28.2	71	20.0	1	4	292	0.00	30.250 
08:10	28.4	28.4	28.4	72	20.5	1	3	292	0.00	30.250 
08:15	28.4	28.4	28.4	72	20.5	1	3	292	0.00	30.263 
08:20	28.4	28.4	28.4	72	20.5	1	3	292	0.00	30.263 
08:25	28.4	28.4	28.4	72	20.5	0	2	292	0.00	30.263 
08:30	28.4	28.4	28.4	72	20.5	0	2	292	0.00	30.266 
08:35	28.4	28.4	28.4	72	20.5	0	1	292	0.00	30.266 
08:40	28.4	28.4	28.4	73	20.9	0	2	292	0.00	30.266 
08:45	28.4	28.4	28.4	72	20.5	0	3	292	0.00	30.267 
08:50	28.5	28.5	28.5	73	21.0	0	1	292	0.00	30.267 
08:55	28.5	28.5	28.5	73	21.0	0	1	292	0.00	30.267 
09:00	28.5	28.5	28.5	72	20.6	0	3	292	0.00	30.269 
09:05	28.5	28.5	28.5	73	21.0	0	2	292	0.00	30.269 
09:10	28.7	28.7	28.7	73	21.2	0	2	292	0.00	30.269 
09:15	28.7	28.7	28.7	73	21.2	0	2	292	0.00	30.275 
09:20	28.7	28.7	28.7	72	20.8	1	3	338	0.00	30.275 
09:25	28.7	28.7	28.7	72	20.8	0	4	338	0.00	30.275 
09:30	28.5	28.5	28.5	68	19.3	2	5	315	0.00	30.274 
09:35	28.7	28.7	28.7	67	19.2	1	5	315	0.00	30.274 
09:40	28.7	28.7	28.7	66	18.8	1	5	338	0.00	30.274 
09:45	28.7	28.7	28.7	67	19.2	1	3	338	0.00	30.271 
09:50	28.7	28.7	28.7	67	19.2	1	4	248	0.00	30.271 
09:55	28.7	28.7	28.7	67	19.2	1	2	270	0.00	30.271 
10:00	28.7	28.7	28.7	67	19.2	0	1	270	0.00	30.278 
10:05	28.7	28.7	28.7	67	19.2	0	3	292	0.00	30.278 
10:10	28.7	28.7	28.7	67	19.2	0	2	292	0.00	30.278 
10:15	28.7	28.7	28.7	67	19.2	0	1	292	0.00	30.282 
10:20	28.8	28.8	28.8	67	19.2	0	1	292	0.00	30.282 
10:25	28.8	28.8	28.8	67	19.2	1	3	292	0.00	30.282 
10:30	28.8	28.8	28.8	67	19.2	0	2	315	0.00	30.297 
10:35	28.8	28.8	28.8	67	19.2	1	4	315	0.00	30.297 
10:40	28.8	28.8	28.8	67	19.2	1	4	338	0.00	30.297 
10:45	28.8	28.8	28.8	67	19.2	1	3	338	0.00	30.310 
10:50	28.8	28.8	28.8	67	19.2	1	3	0	0.00	30.310 
10:55	29.0	29.0	29.0	67	19.4	0	4	270	0.00	30.310 
11:00	29.0	29.0	29.0	66	19.1	1	3	315	0.00	30.311 
11:05	29.0	29.0	29.0	66	19.1	1	3	315	0.00	30.311 
11:10	29.0	29.0	29.0	67	19.4	0	3	315	0.00	30.311 
11:15	29.1	29.1	29.1	67	19.5	0	2	315	0.00	30.307 
11:20	29.1	29.1	29.1	66	19.2	1	3	292	0.00	30.307 
11:25	29.3	29.3	29.3	66	19.4	0	2	315	0.00	30.307 
11:30	29.4	29.4	29.4	67	19.8	0	2	315	0.00	30.300 
11:35	29.4	29.4	29.4	66	19.5	0	2	315	0.00	30.300 
11:40	29.4	29.4	29.4	66	19.5	1	4	270	0.00	30.300 
11:45	29.4	29.4	29.4	67	19.8	0	3	338	0.00	30.295 
11:50	29.4	29.4	29.4	67	19.8	0	2	338	0.00	30.295 
11:55	29.4	29.4	29.4	67	19.8	0	3	338	0.00	30.295 
12:00	29.4	29.4	29.4	67	19.8	0	2	338	0.00	30.290 
12:05	29.5	29.5	29.5	67	19.9	0	3	315	0.00	30.290 
12:10	29.5	29.5	29.5	66	19.6	0	2	315	0.00	30.290 
12:15	29.5	29.5	29.5	66	19.6	1	4	315	0.00	30.297 
12:20	29.4	29.4	29.4	66	19.5	0	3	315	0.00	30.297 
12:25	29.4	29.4	29.4	66	19.5	1	3	338	0.00	30.297 
12:30	29.4	29.4	29.4	66	19.5	0	3	315	0.00	30.284 
12:35	29.4	29.4	29.4	66	19.5	1	3	338	0.00	30.284 
12:40	29.4	29.4	29.4	66	19.5	1	3	338	0.00	30.284 
12:45	29.4	29.4	29.4	66	19.5	0	3	338	0.00	30.282 
12:50	29.4	29.4	29.4	66	19.5	0	3	338	0.00	30.282 
12:55	29.4	29.4	29.4	66	19.5	1	3	338	0.00	30.282 
13:00	29.4	29.4	29.4	66	19.5	1	3	338	0.00	30.272 
13:05	29.4	29.4	29.4	67	19.8	1	4	315	0.00	30.272 
13:10	29.4	29.4	29.4	66	19.5	1	3	338	0.00	30.272 
13:15	29.4	29.4	29.4	66	19.5	1	5	315	0.00	30.265 
13:20	29.4	29.4	29.4	65	19.1	1	3	0	0.00	30.265 
13:25	29.4	29.4	29.4	66	19.5	0	1	0	0.00	30.265 
13:30	29.5	29.5	29.5	66	19.6	1	3	338	0.00	30.268 
13:35	29.4	29.4	29.4	66	19.5	1	4	0	0.00	30.268 
13:40	29.3	29.3	29.3	65	19.0	1	3	292	0.00	30.268 
13:45	29.3	29.3	29.3	65	19.0	1	3	292	0.00	30.281 
13:50	29.3	29.3	29.3	65	19.0	0	3	315	0.00	30.281 
13:55	29.3	29.3	29.3	66	19.4	0	3	315	0.00	30.281 
14:00	29.1	29.1	29.1	66	19.2	1	3	315	0.00	30.268 
14:05	29.0	29.0	29.0	67	19.4	0	2	315	0.00	30.268 
14:10	29.0	29.0	29.0	67	19.4	1	5	338	0.00	30.268 
14:15	28.8	28.8	28.8	67	19.2	0	2	315	0.00	30.270 
14:20	28.8	28.8	28.8	67	19.2	0	2	315	0.00	30.270 
14:25	28.8	28.8	28.8	67	19.2	1	4	315	0.00	30.270 
14:30	28.7	28.7	28.7	66	18.8	1	4	338	0.00	30.268 
14:35	28.5	28.5	28.5	66	18.6	1	3	338	0.00	30.268 
14:40	28.5	28.5	28.5	66	18.6	1	5	338	0.00	30.268 
14:45	28.5	28.5	28.5	65	18.3	1	5	292	0.00	30.274 
14:50	28.5	28.5	28.5	65	18.3	1	4	270	0.00	30.274 
14:55	28.5	28.5	28.5	66	18.6	0	2	338	0.00	30.274 
15:00	28.5	28.5	28.5	65	18.3	1	4	315	0.00	30.285 
15:05	28.5	28.5	28.5	64	17.9	0	2	315	0.00	30.285 
15:10	28.5	28.5	28.5	64	17.9	1	4	292	0.00	30.285 
15:15	28.5	28.5	28.5	63	17.5	1	4	292	0.00	30.284 
15:20	28.5	28.5	28.5	64	17.9	1	4	338	0.00	30.284 
15:25	28.5	28.5	28.5	64	17.9	1	4	338	0.00	30.284 
15:30	28.4	28.4	28.4	64	17.8	1	3	292	0.00	30.270 
15:35	28.4	28.4	28.4	64	17.8	1	4	338	0.00	30.270 
15:40	28.2	28.2	28.2	65	18.0	1	5	338	0.00	30.270 
15:45	28.2	28.2	28.2	65	18.0	1	3	0	0.00	30.269 
15:50	28.1	28.1	28.1	65	17.9	1	4	292	0.00	30.269 
15:55	28.1	28.1	28.1	65	17.9	0	3	270	0.00	30.269 
16:00	28.1	28.1	28.1	65	17.9	1	3	292	0.00	30.269 
16:05	27.9	27.9	27.9	65	17.7	1	4	270	0.00	30.269 
16:10	27.9	27.9	27.9	65	17.7	1	3	315	0.00	30.269 
16:15	27.9	27.9	27.9	65	17.7	1	5	315	0.00	30.284 
16:20	27.8	27.8	27.8	65	17.6	0	3	270	0.00	30.284 
16:25	27.8	27.8	27.8	65	17.6	0	2	270	0.00	30.284 
16:30	27.8	27.8	27.8	65	17.6	0	2	270	0.00	30.299 
16:35	27.8	27.8	27.8	65	17.6	0	2	270	0.00	30.299 
16:40	27.6	27.6	27.6	65	17.4	0	3	270	0.00	30.299 
16:45	27.6	27.6	27.6	65	17.4	0	2	270	0.00	30.301 
16:50	27.6	27.6	27.6	65	17.4	0	2	270	0.00	30.301 
16:55	27.6	27.6	27.6	65	17.4	0	3	270	0.00	30.301 
17:00	27.5	27.5	27.5	65	17.3	0	1	270	0.00	30.299 
17:05	27.5	27.5	27.5	65	17.3	1	3	270	0.00	30.299 
17:10	27.3	27.3	27.3	65	17.1	0	2	270	0.00	30.299 
17:15	27.3	27.3	27.3	65	17.1	0	3	270	0.00	30.297 
17:20	27.2	27.2	27.2	65	17.0	1	3	270	0.00	30.297 
17:25	27.2	27.2	27.2	64	16.7	1	4	292	0.00	30.297 
17:30	27.2	27.2	27.2	64	16.7	0	2	270	0.00	30.311 
17:35	27.0	27.0	27.0	65	16.8	0	2	270	0.00	30.311 
17:40	27.0	27.0	27.0	65	16.8	0	3	270	0.00	30.311 
17:45	27.0	27.0	27.0	65	16.8	1	3	0	0.00	30.318 
17:50	27.0	27.0	27.0	65	16.8	1	4	338	0.00	30.318 
17:55	27.0	27.0	27.0	65	16.8	0	3	315	0.00	30.318 
18:00	27.0	27.0	27.0	65	16.8	0	2	315	0.00	30.325 
18:05	27.0	27.0	27.0	65	16.8	0	2	315	0.00	30.325 
18:10	26.9	26.9	26.9	65	16.7	1	3	315	0.00	30.325 
18:15	26.9	26.9	26.9	65	16.7	1	4	338	0.00	30.315 
18:20	26.7	26.7	26.7	65	16.5	1	4	338	0.00	30.315 
18:25	26.7	26.7	26.7	65	16.5	0	2	338	0.00	30.315 
18:30	26.7	26.7	26.7	65	16.5	0	2	338	0.00	30.330 
18:35	26.7	26.7	26.7	65	16.5	1	3	292	0.00	30.330 
18:40	26.7	26.7	26.7	65	16.5	0	2	292	0.00	30.330 
18:45	26.7	26.7	26.7	65	16.5	1	3	292	0.00	30.347 
18:50	26.7	26.7	26.7	65	16.5	0	3	315	0.00	30.347 
18:55	26.7	26.7	26.7	65	16.5	0	2	315	0.00	30.347 
19:00	26.7	26.7	26.7	65	16.5	0	3	292	0.00	30.349 
19:05	26.6	26.6	26.6	66	16.8	0	3	292	0.00	30.349 
19:10	26.6	26.6	26.6	66	16.8	0	1	292	0.00	30.349 
19:15	26.6	26.6	26.6	66	16.8	0	2	292	0.00	30.364 
19:20	26.4	26.4	26.4	65	16.3	1	3	338	0.00	30.364 
19:25	26.4	26.4	26.4	65	16.3	0	2	338	0.00	30.364 
19:30	26.4	26.4	26.4	66	16.6	0	3	292	0.00	30.352 
19:35	26.3	26.3	26.3	66	16.5	0	3	292	0.00	30.352 
19:40	26.3	26.3	26.3	66	16.5	0	3	292	0.00	30.352 
19:45	26.3	26.3	26.3	65	16.2	1	3	292	0.00	30.354 
19:50	26.1	26.1	26.1	65	16.0	0	1	292	0.00	30.354 
19:55	26.1	26.1	26.1	65	16.0	0	3	292	0.00	30.354 
20:00	26.0	26.0	26.0	65	15.9	0	2	292	0.00	30.354 
20:05	26.0	26.0	26.0	65	15.9	0	4	292	0.00	30.354 
20:10	26.0	26.0	26.0	65	15.9	1	3	292	0.00	30.354 
20:15	25.8	25.8	25.8	66	16.0	0	3	315	0.00	30.350 
20:20	26.0	26.0	26.0	66	16.2	0	2	315	0.00	30.350 
20:25	26.0	26.0	26.0	66	16.2	0	1	315	0.00	30.350 
20:30	25.8	25.8	25.8	66	16.0	0	3	315	0.00	30.353 
20:35	25.8	25.8	25.8	66	16.0	1	4	315	0.00	30.353 
20:40	25.8	25.8	25.8	66	16.0	1	2	270	0.00	30.353 
20:45	25.7	25.7	25.7	65	15.6	1	4	270	0.00	30.360 
20:50	25.7	25.7	25.7	65	15.6	1	3	315	0.00	30.360 
20:55	25.6	25.6	25.6	65	15.5	1	3	315	0.00	30.360 
21:00	25.6	25.6	25.6	66	15.8	0	4	0	0.00	30.351 
21:05	25.6	25.6	25.6	66	15.8	1	3	0	0.00	30.351 
21:10	25.4	25.4	25.4	66	15.7	0	3	0	0.00	30.351 
21:15	25.4	25.4	25.4	67	16.0	0	3	0	0.00	30.365 
21:20	25.4	25.4	25.4	67	16.0	1	4	270	0.00	30.365 
21:25	25.4	25.4	25.4	67	16.0	0	3	292	0.00	30.365 
21:30	25.3	25.3	25.3	67	15.9	1	2	292	0.00	30.380 
21:35	25.1	25.1	25.1	67	15.7	1	4	292	0.00	30.380 
21:40	25.1	25.1	25.1	67	15.7	0	2	315	0.00	30.380 
21:45	25.0	25.0	25.0	67	15.6	1	3	292	0.00	30.385 
21:50	25.0	25.0	25.0	67	15.6	1	3	292	0.00	30.385 
21:55	25.0	25.0	25.0	67	15.6	1	4	0	0.00	30.385 
22:00	25.0	25.0	25.0	67	15.6	1	3	338	0.00	30.398 
22:05	25.0	25.0	25.0	67	15.6	0	2	338	0.00	30.398 
22:10	25.0	25.0	25.0	67	15.6	1	4	338	0.00	30.398 
22:15	24.8	24.8	24.8	66	15.1	1	5	270	0.00	30.399 
22:20	24.8	24.8	24.8	66	15.1	1	3	315	0.00	30.399 
22:25	24.8	24.8	24.8	65	14.7	1	4	315	0.00	30.399 
22:30	24.8	24.8	24.8	65	14.7	1	5	248	0.00	30.410 
22:35	24.7	24.7	24.7	63	13.9	1	4	315	0.00	30.410 
22:40	24.7	24.7	24.7	64	14.3	1	3	338	0.00	30.410 
22:45	24.5	24.5	24.5	64	14.1	1	4	292	0.00	30.409 
22:50	24.5	24.5	24.5	63	13.7	0	2	338	0.00	30.409 
22:55	24.5	24.5	24.5	63	13.7	1	4	315	0.00	30.409 
23:00	24.5	24.5	24.5	64	14.1	1	4	315	0.00	30.414 
23:05	24.5	24.5	24.5	64	14.1	1	3	315	0.00	30.414 
23:10	24.4	24.4	24.4	64	14.0	0	2	315	0.00	30.414 
23:15	24.4	24.4	24.4	64	14.0	0	2	315	0.00	30.420 
23:20	24.4	24.4	24.4	63	13.6	1	5	315	0.00	30.420 
23:25	24.2	24.2	24.2	63	13.4	1	3	338	0.00	30.420 
23:30	24.2	24.2	24.2	63	13.4	1	5	292	0.00	30.426 
23:35	24.1	24.1	24.1	63	13.4	1	5	338	0.00	30.426 
23:40	24.1	24.1	24.1	63	13.4	0	2	315	0.00	30.426 
23:45	24.1	24.1	24.1	63	13.4	0	3	315	0.00	30.430 
23:50	24.1	24.1	24.1	63	13.4	1	4	292	0.00	30.430 
23:55	24.1	24.1	24.1	63	13.4	1	4	292	0.00	30.430 

CoCoRaHS
IN-AL-39
A2 Web Hosting
Creative Commons License
GoDaddy
search engine by freefind advanced

loaded 2018-11-17 14:22:39 • last modified 2010-11-18 10:43:29
Privacy PolicyDisclaimer
• wx.awcolley.com is powered by PmWiki v.2002016 •
• all content (unless otherwise noted) © 2018 A W Colley